Time;durP1;ratioP1;P1;durP2;ratioP2;P2;SDS_P1;SDS_P2;PMS_P1;PMS_P2;Temp;Humidity;BMP_temperature;BMP_pressure;BME280_temperature;BME280_humidity;BME280_pressure;Samples;Min_cycle;Max_cycle;Signal;HPM_P1;HPM_P2
2023/08/22 00:00:04;;;;;;;0.30;0.30;;;;;;;23.17;74.64;97243.28;29395;204;63009;-69
2023/08/22 00:00:36;;;;;;;0.30;0.30;;;;;;;23.16;74.71;97241.69;29395;218;63005;-68
2023/08/22 00:01:07;;;;;;;0.30;0.30;;;;;;;23.16;74.13;97243.66;29395;210;63009;-68
2023/08/22 00:01:38;;;;;;;0.30;0.30;;;;;;;23.14;74.84;97244.00;29395;210;63005;-56
2023/08/22 00:02:09;;;;;;;0.30;0.30;;;;;;;23.14;74.52;97244.00;29395;253;63009;-69
2023/08/22 00:02:41;;;;;;;0.30;0.30;;;;;;;23.14;74.23;97238.47;29394;206;64009;-69
2023/08/22 00:03:13;;;;;;;0.30;0.30;;;;;;;23.14;74.28;97235.72;29395;214;63009;-68
2023/08/22 00:03:47;;;;;;;0.30;0.30;;;;;;;23.14;74.80;97238.47;29395;246;63005;-70
2023/08/22 00:04:18;;;;;;;0.30;0.30;;;;;;;23.15;74.61;97240.06;29395;197;63009;-70
2023/08/22 00:04:51;;;;;;;0.30;0.30;;;;;;;23.14;74.99;97241.25;29395;276;63008;-70
2023/08/22 00:05:23;;;;;;;0.30;0.30;;;;;;;23.14;74.75;97238.47;29395;206;63009;-70
2023/08/22 00:05:56;;;;;;;0.30;0.30;;;;;;;23.15;74.65;97242.03;29395;199;63004;-70
2023/08/22 00:06:27;;;;;;;0.30;0.30;;;;;;;23.14;74.33;97238.47;29395;204;63009;-69
2023/08/22 00:06:59;;;;;;;0.30;0.30;;;;;;;23.15;74.70;97244.81;29395;224;63004;-69
2023/08/22 00:07:33;;;;;;;0.30;0.30;;;;;;;23.14;74.60;97244.00;29395;200;63016;-56
2023/08/22 00:08:05;;;;;;;0.30;0.30;;;;;;;23.13;74.72;97242.41;29394;224;64009;-70
2023/08/22 00:08:40;;;;;;;0.30;0.30;;;;;;;23.12;74.38;97240.81;29395;206;63025;-70
2023/08/22 00:09:12;;;;;;;0.30;0.30;;;;;;;23.11;74.74;97239.19;29395;223;63005;-70
2023/08/22 00:09:44;;;;;;;0.30;0.30;;;;;;;23.11;74.96;97244.75;29395;233;63009;-58
2023/08/22 00:10:16;;;;;;;0.30;0.30;;;;;;;23.11;74.83;97244.75;29395;197;63005;-70
2023/08/22 00:10:48;;;;;;;0.30;0.30;;;;;;;23.07;75.17;97238.34;29395;213;63009;-69
2023/08/22 00:11:19;;;;;;;0.30;0.30;;;;;;;23.10;75.02;97243.13;29395;218;63005;-69
2023/08/22 00:11:51;;;;;;;0.30;0.30;;;;;;;23.11;74.85;97243.94;29395;248;63009;-69
2023/08/22 00:12:24;;;;;;;0.30;0.30;;;;;;;23.10;74.87;97243.13;29395;222;63009;-70
2023/08/22 00:12:55;;;;;;;0.30;0.30;;;;;;;23.10;75.10;97245.09;29395;258;63009;-69
2023/08/22 00:13:27;;;;;;;0.30;0.30;;;;;;;23.09;74.66;97247.06;29394;218;64009;-69
2023/08/22 00:13:58;;;;;;;0.30;0.30;;;;;;;23.10;74.99;97248.66;29395;200;63009;-68
2023/08/22 00:14:29;;;;;;;0.30;0.30;;;;;;;23.09;74.87;97244.31;29395;196;63004;-69
2023/08/22 00:15:04;;;;;;;0.30;0.30;;;;;;;23.09;75.19;97241.53;29395;207;63009;-70
2023/08/22 00:15:40;;;;;;;0.30;0.30;;;;;;;23.08;74.56;97245.47;29395;257;63005;-71
2023/08/22 00:16:13;;;;;;;0.30;0.30;;;;;;;23.08;75.02;97239.94;29395;253;63009;-69
2023/08/22 00:16:45;;;;;;;0.30;0.30;;;;;;;23.08;74.62;97245.47;29395;236;63005;-69
2023/08/22 00:17:19;;;;;;;0.30;0.30;;;;;;;23.08;74.63;97244.66;29395;230;63009;-69
2023/08/22 00:17:53;;;;;;;0.37;0.37;;;;;;;23.08;74.70;97239.94;29395;197;63005;-70
2023/08/22 00:18:24;;;;;;;0.30;0.30;;;;;;;23.09;74.83;97247.06;29395;198;63009;-70
2023/08/22 00:18:56;;;;;;;0.30;0.30;;;;;;;23.08;74.58;97234.41;29394;220;64009;-56
2023/08/22 00:19:31;;;;;;;0.30;0.30;;;;;;;23.08;74.67;97239.94;29395;230;63009;-69
2023/08/22 00:20:08;;;;;;;0.30;0.30;;;;;;;23.06;74.82;97237.53;29395;252;63004;-69
2023/08/22 00:20:40;;;;;;;0.30;0.30;;;;;;;23.05;74.69;97235.94;29395;218;63009;-69
2023/08/22 00:21:12;;;;;;;0.30;0.30;;;;;;;23.04;74.88;97233.53;29395;282;63004;-56
2023/08/22 00:21:43;;;;;;;0.30;0.30;;;;;;;23.04;74.82;97239.06;29395;203;63008;-69
2023/08/22 00:22:17;;;;;;;0.30;0.30;;;;;;;23.04;74.95;97233.53;29395;231;63004;-57
2023/08/22 00:22:49;;;;;;;0.30;0.30;;;;;;;23.04;75.16;97236.28;29395;241;63016;-69
2023/08/22 00:23:20;;;;;;;0.30;0.30;;;;;;;23.04;75.13;97236.28;29395;220;63005;-69
2023/08/22 00:23:51;;;;;;;0.30;0.30;;;;;;;23.04;74.77;97239.06;29395;235;63009;-57
2023/08/22 00:24:23;;;;;;;0.30;0.30;;;;;;;23.03;74.93;97237.47;29394;204;64009;-69
2023/08/22 00:24:56;;;;;;;0.30;0.30;;;;;;;23.03;74.64;97237.47;29395;204;63009;-57
2023/08/22 00:25:27;;;;;;;0.30;0.30;;;;;;;23.03;75.46;97240.22;29394;239;64009;-68
2023/08/22 00:25:58;;;;;;;0.30;0.30;;;;;;;23.03;75.12;97234.69;29395;258;63004;-69
2023/08/22 00:26:30;;;;;;;0.30;0.30;;;;;;;23.03;75.44;97237.47;29395;222;63004;-69
2023/08/22 00:27:02;;;;;;;0.30;0.30;;;;;;;23.02;74.98;97235.84;29395;199;63009;-69
2023/08/22 00:27:34;;;;;;;0.30;0.30;;;;;;;23.01;74.74;97234.25;29395;259;63004;-69
2023/08/22 00:28:05;;;;;;;0.30;0.30;;;;;;;23.01;75.00;97234.25;29395;213;63009;-70
2023/08/22 00:28:37;;;;;;;0.30;0.30;;;;;;;23.00;75.18;97233.44;29395;271;63004;-69
2023/08/22 00:29:08;;;;;;;0.30;0.30;;;;;;;23.00;75.16;97232.66;29395;202;63009;-68
2023/08/22 00:29:43;;;;;;;0.30;0.30;;;;;;;22.99;75.22;97236.59;29395;279;63005;-56
2023/08/22 00:30:14;;;;;;;0.30;0.30;;;;;;;22.97;75.13;97233.38;29395;204;63009;-69
2023/08/22 00:30:46;;;;;;;0.30;0.30;;;;;;;22.97;75.38;97233.38;29394;232;64009;-69
2023/08/22 00:31:17;;;;;;;0.30;0.30;;;;;;;22.96;75.19;97231.78;29394;202;64009;-70
2023/08/22 00:31:50;;;;;;;0.30;0.30;;;;;;;22.95;75.29;97230.19;29395;202;63005;-70
2023/08/22 00:32:21;;;;;;;0.30;0.30;;;;;;;22.94;75.45;97234.91;29395;203;63009;-69
2023/08/22 00:32:52;;;;;;;0.30;0.30;;;;;;;22.93;75.44;97232.50;29395;208;63005;-70
2023/08/22 00:33:23;;;;;;;0.30;0.30;;;;;;;22.93;75.42;97229.72;29395;222;63009;-56
2023/08/22 00:33:55;;;;;;;0.30;0.30;;;;;;;22.92;75.88;97230.91;29395;282;63004;-70
2023/08/22 00:34:26;;;;;;;0.30;0.30;;;;;;;22.91;75.54;97232.88;29395;239;63009;-69
2023/08/22 00:34:58;;;;;;;0.30;0.30;;;;;;;22.91;75.49;97235.63;29395;217;63004;-70
2023/08/22 00:35:30;;;;;;;0.30;0.30;;;;;;;22.91;75.53;97229.31;29395;236;63009;-69
2023/08/22 00:36:01;;;;;;;0.30;0.30;;;;;;;22.91;75.45;97223.75;29394;250;64008;-70
2023/08/22 00:36:32;;;;;;;0.30;0.30;;;;;;;22.90;75.54;97228.50;29395;289;63008;-69
2023/08/22 00:37:04;;;;;;;0.30;0.30;;;;;;;22.90;75.71;97228.50;29395;278;63005;-69
2023/08/22 00:37:36;;;;;;;0.30;0.30;;;;;;;22.90;75.57;97228.50;29395;199;63009;-69
2023/08/22 00:38:07;;;;;;;0.30;0.30;;;;;;;22.90;75.67;97233.22;29395;237;63005;-68
2023/08/22 00:38:42;;;;;;;0.30;0.30;;;;;;;22.88;75.49;97227.25;29395;242;63009;-69
2023/08/22 00:39:13;;;;;;;0.30;0.30;;;;;;;22.87;75.57;97220.16;29395;226;63005;-70
2023/08/22 00:39:45;;;;;;;0.30;0.30;;;;;;;22.88;75.67;97235.56;29395;277;63009;-69
2023/08/22 00:40:17;;;;;;;0.30;0.30;;;;;;;22.88;75.98;97230.03;29395;214;63005;-56
2023/08/22 00:40:49;;;;;;;0.30;0.30;;;;;;;22.87;75.57;97234.00;29395;224;63009;-69
2023/08/22 00:41:23;;;;;;;0.30;0.30;;;;;;;22.87;75.68;97228.44;29394;278;64009;-69
2023/08/22 00:41:55;;;;;;;0.30;0.30;;;;;;;22.86;75.39;97227.66;29395;218;63009;-70
2023/08/22 00:42:27;;;;;;;0.30;0.30;;;;;;;22.84;75.64;97234.72;29395;202;63004;-56
2023/08/22 00:42:59;;;;;;;0.30;0.30;;;;;;;22.85;75.67;97233.56;29395;255;63009;-69
2023/08/22 00:43:30;;;;;;;0.30;0.30;;;;;;;22.84;76.14;97224.44;29395;277;63004;-70
2023/08/22 00:44:01;;;;;;;0.30;0.30;;;;;;;22.83;75.82;97222.03;29395;196;63008;-68
2023/08/22 00:44:33;;;;;;;0.30;0.30;;;;;;;22.83;76.16;97224.81;29395;242;63005;-69
2023/08/22 00:45:06;;;;;;;0.30;0.30;;;;;;;22.81;75.77;97219.63;29395;199;63009;-69
2023/08/22 00:45:37;;;;;;;0.30;0.30;;;;;;;22.78;75.66;97223.12;29395;242;63005;-71
2023/08/22 00:46:09;;;;;;;0.30;0.30;;;;;;;22.80;75.94;97223.56;29395;227;63009;-56
2023/08/22 00:46:44;;;;;;;0.30;0.30;;;;;;;22.80;75.82;97223.56;29394;198;64009;-69
2023/08/22 00:47:16;;;;;;;0.30;0.30;;;;;;;22.80;75.68;97222.78;29395;204;63020;-70
2023/08/22 00:47:51;;;;;;;0.30;0.30;;;;;;;22.80;76.23;97223.56;29395;220;63009;-68
2023/08/22 00:48:24;;;;;;;0.30;0.30;;;;;;;22.79;75.94;97224.75;29395;209;63009;-56
2023/08/22 00:48:55;;;;;;;0.30;0.30;;;;;;;22.79;76.30;97221.16;29395;196;63004;-69
2023/08/22 00:49:27;;;;;;;0.30;0.30;;;;;;;22.78;75.71;97214.84;29395;208;63009;-69
2023/08/22 00:49:58;;;;;;;0.30;0.30;;;;;;;22.78;76.23;97225.91;29395;252;63015;-68
2023/08/22 00:50:30;;;;;;;0.20;0.20;;;;;;;22.78;75.85;97219.53;29395;204;63009;-68
2023/08/22 00:51:02;;;;;;;0.30;0.30;;;;;;;22.78;75.91;97219.53;29395;237;63004;-68
2023/08/22 00:51:35;;;;;;;0.30;0.30;;;;;;;22.78;75.95;97220.38;29395;282;63008;-69
2023/08/22 00:52:07;;;;;;;0.30;0.30;;;;;;;22.77;75.82;97223.47;29394;247;64009;-69
2023/08/22 00:52:42;;;;;;;0.30;0.30;;;;;;;22.78;75.80;97225.06;29395;238;63009;-68
2023/08/22 00:53:13;;;;;;;0.30;0.30;;;;;;;22.77;76.07;97223.47;29394;245;64005;-69
2023/08/22 00:53:45;;;;;;;0.30;0.30;;;;;;;22.77;76.18;97226.22;29395;289;63009;-68
2023/08/22 00:54:19;;;;;;;0.30;0.30;;;;;;;22.77;75.94;97220.69;29394;218;64005;-69
2023/08/22 00:54:50;;;;;;;0.30;0.30;;;;;;;22.77;75.78;97218.72;29395;229;63024;-69
2023/08/22 00:55:22;;;;;;;0.20;0.20;;;;;;;22.76;76.23;97216.34;29395;218;63005;-70
2023/08/22 00:55:53;;;;;;;0.30;0.30;;;;;;;22.77;76.13;97217.94;29395;225;63009;-68
2023/08/22 00:56:25;;;;;;;0.30;0.30;;;;;;;22.77;75.78;97218.72;29395;286;63004;-69
2023/08/22 00:56:58;;;;;;;0.30;0.30;;;;;;;22.76;75.77;97221.88;29395;296;63009;-71
2023/08/22 00:57:29;;;;;;;0.30;0.30;;;;;;;22.77;75.76;97223.47;29394;262;64009;-69
2023/08/22 00:58:01;;;;;;;0.30;0.30;;;;;;;22.76;75.94;97217.13;29395;254;63009;-69
2023/08/22 00:58:33;;;;;;;0.30;0.30;;;;;;;22.76;76.00;97222.66;29395;224;63004;-70
2023/08/22 00:59:04;;;;;;;0.30;0.30;;;;;;;22.75;75.88;97215.53;29395;211;63018;-69
2023/08/22 00:59:39;;;;;;;0.30;0.30;;;;;;;22.76;76.29;97221.88;29395;197;63005;-68
2023/08/22 01:00:12;;;;;;;0.30;0.30;;;;;;;22.76;75.77;97216.34;29395;247;63009;-69
2023/08/22 01:00:46;;;;;;;0.30;0.30;;;;;;;22.76;75.91;97210.81;29395;256;63001;-71
2023/08/22 01:01:18;;;;;;;0.30;0.30;;;;;;;22.73;75.82;97218.66;29394;244;64013;-56
2023/08/22 01:01:50;;;;;;;0.30;0.30;;;;;;;22.73;75.83;97212.31;29395;243;63005;-69
2023/08/22 01:02:22;;;;;;;0.30;0.30;;;;;;;22.72;76.19;97214.28;29395;225;63009;-69
2023/08/22 01:02:54;;;;;;;0.30;0.30;;;;;;;22.73;75.68;97218.66;29394;281;64009;-69
2023/08/22 01:03:25;;;;;;;0.30;0.30;;;;;;;22.72;75.50;97217.06;29395;234;63009;-69
2023/08/22 01:03:57;;;;;;;0.30;0.30;;;;;;;22.71;75.90;97218.22;29395;238;63004;-69
2023/08/22 01:04:29;;;;;;;0.30;0.30;;;;;;;22.71;75.65;97215.44;29395;232;63009;-56
2023/08/22 01:05:01;;;;;;;0.30;0.30;;;;;;;22.70;76.19;97216.63;29395;207;63004;-69
2023/08/22 01:05:38;;;;;;;0.28;0.28;;;;;;;22.70;76.14;97213.84;29395;229;63009;-56
2023/08/22 01:06:41;;;;;;;0.30;0.30;;;;;;;22.71;76.16;97215.44;29395;202;63004;-69
2023/08/22 01:07:25;;;;;;;0.30;0.30;;;;;;;22.69;75.70;97215.00;29395;212;63009;-70
2023/08/22 01:08:13;;;;;;;0.30;0.30;;;;;;;22.71;75.60;97221.00;29394;246;64009;-69
2023/08/22 01:08:51;;;;;;;0.30;0.30;;;;;;;22.69;75.42;97212.25;29395;229;63011;-69
2023/08/22 01:09:56;;;;;;;0.35;0.35;;;;;;;22.71;75.66;97212.69;29395;243;63005;-55
2023/08/22 01:10:33;;;;;;;0.30;0.30;;;;;;;22.71;75.42;97211.87;29395;222;63009;-68
2023/08/22 01:11:18;;;;;;;0.30;0.30;;;;;;;22.72;74.84;97217.06;29395;202;63004;-70
2023/08/22 01:11:53;;;;;;;0.30;0.30;;;;;;;22.72;74.77;97214.28;29395;263;63016;-69
2023/08/22 01:12:47;;;;;;;0.30;0.30;;;;;;;22.74;74.81;97208.41;29395;250;63004;-70
2023/08/22 01:13:27;;;;;;;0.30;0.30;;;;;;;22.76;74.45;97205.25;29394;225;64008;-68
2023/08/22 01:14:07;;;;;;;0.30;0.30;;;;;;;22.76;74.45;97205.25;29439;208;63004;-68
2023/08/22 01:14:44;;;;;;;0.30;0.30;;;;;;;22.77;74.03;97201.34;29395;222;63005;-69
2023/08/22 01:15:25;;;;;;;0.30;0.30;;;;;;;22.78;74.23;97208.47;29395;280;63009;-70
2023/08/22 01:15:57;;;;;;;0.30;0.30;;;;;;;22.80;73.77;97211.72;29395;242;63015;-70
2023/08/22 01:16:29;;;;;;;0.30;0.30;;;;;;;22.81;74.12;97207.78;29395;251;63009;-69
2023/08/22 01:17:03;;;;;;;0.30;0.30;;;;;;;22.82;73.52;97212.13;29395;258;63005;-68
2023/08/22 01:17:36;;;;;;;0.30;0.30;;;;;;;22.83;73.87;97210.97;29395;251;63009;-56
2023/08/22 01:18:08;;;;;;;0.30;0.30;;;;;;;22.81;74.21;97208.56;29395;224;63004;-70
2023/08/22 01:18:40;;;;;;;0.30;0.30;;;;;;;22.82;74.12;97212.94;29394;227;64013;-69
2023/08/22 01:19:20;;;;;;;0.30;0.30;;;;;;;22.81;74.50;97208.56;29395;234;63004;-56
2023/08/22 01:19:52;;;;;;;0.30;0.30;;;;;;;22.82;74.07;97209.38;29395;229;63009;-69
2023/08/22 01:20:25;;;;;;;0.30;0.30;;;;;;;22.80;74.37;97206.97;29395;203;63004;-69
2023/08/22 01:21:06;;;;;;;0.30;0.30;;;;;;;22.79;74.36;97202.59;29395;244;63021;-69
2023/08/22 01:21:45;;;;;;;0.30;0.30;;;;;;;22.80;74.33;97200.62;29395;275;63005;-70
2023/08/22 01:22:24;;;;;;;0.30;0.30;;;;;;;22.79;74.35;97204.56;29439;218;63026;-69
2023/08/22 01:22:57;;;;;;;0.30;0.30;;;;;;;22.78;74.27;97203.78;29373;259;63010;-69
2023/08/22 01:23:28;;;;;;;0.30;0.30;;;;;;;22.79;74.72;97202.59;29395;202;63009;-70
2023/08/22 01:24:00;;;;;;;0.20;0.20;;;;;;;22.79;74.25;97197.06;29394;287;64009;-70
2023/08/22 01:24:31;;;;;;;0.30;0.30;;;;;;;22.80;74.21;97200.62;29395;227;63016;-68
2023/08/22 01:25:04;;;;;;;0.30;0.30;;;;;;;22.81;74.18;97202.25;29395;204;63005;-68
2023/08/22 01:25:37;;;;;;;0.30;0.30;;;;;;;22.80;74.27;97192.34;29395;207;63009;-70
2023/08/22 01:26:09;;;;;;;0.30;0.30;;;;;;;22.80;74.02;97200.62;29395;206;63004;-68
2023/08/22 01:26:41;;;;;;;0.30;0.30;;;;;;;22.81;73.93;97205.81;29395;233;63009;-68
2023/08/22 01:27:14;;;;;;;0.30;0.30;;;;;;;22.81;73.79;97196.72;29395;226;63004;-70
2023/08/22 01:28:23;;;;;;;0.30;0.30;;;;;;;22.82;73.81;97206.59;29395;246;63009;-56
2023/08/22 01:29:00;;;;;;;0.30;0.30;;;;;;;22.82;73.21;97199.13;29395;270;63009;-69
2023/08/22 01:29:50;;;;;;;0.30;0.30;;;;;;;22.82;73.56;97198.31;29394;285;64014;-69
2023/08/22 01:30:43;;;;;;;0.30;0.30;;;;;;;22.84;73.51;97202.31;29395;282;63005;-70
2023/08/22 01:31:50;;;;;;;0.30;0.30;;;;;;;22.83;73.52;97195.19;29395;210;63009;-69
2023/08/22 01:32:37;;;;;;;0.30;0.30;;;;;;;22.83;73.98;97197.94;29395;210;63005;-70
2023/08/22 01:33:22;;;;;;;0.30;0.30;;;;;;;22.84;73.31;97198.75;29395;227;63009;-70
2023/08/22 01:34:08;;;;;;;0.30;0.30;;;;;;;22.83;73.16;97202.69;29394;290;64009;-69
2023/08/22 01:34:43;;;;;;;0.30;0.30;;;;;;;22.83;73.48;97202.69;29395;218;63009;-69
2023/08/22 01:35:20;;;;;;;0.30;0.30;;;;;;;22.84;73.54;97207.03;29395;274;63004;-70
2023/08/22 01:35:54;;;;;;;0.30;0.30;;;;;;;22.83;73.61;97205.44;29395;218;63008;-68
2023/08/22 01:36:30;;;;;;;0.30;0.30;;;;;;;22.82;73.42;97204.66;29395;285;63010;-68
2023/08/22 01:37:03;;;;;;;0.30;0.30;;;;;;;22.81;73.50;97197.50;29395;199;63009;-68
2023/08/22 01:37:36;;;;;;;0.30;0.30;;;;;;;22.80;73.94;97201.44;29395;225;63005;-70
2023/08/22 01:38:09;;;;;;;0.30;0.30;;;;;;;22.80;73.59;97203.41;29395;271;63009;-69
2023/08/22 01:38:43;;;;;;;0.30;0.30;;;;;;;22.79;73.62;97210.09;29395;280;63013;-69
2023/08/22 01:39:18;;;;;;;0.30;0.30;;;;;;;22.79;73.88;97204.56;29394;204;64013;-69
2023/08/22 01:39:55;;;;;;;0.30;0.30;;;;;;;22.78;73.70;97202.94;29395;285;63005;-57
2023/08/22 01:40:29;;;;;;;0.30;0.30;;;;;;;22.76;73.91;97200.53;29395;238;63009;-69
2023/08/22 01:41:02;;;;;;;0.30;0.30;;;;;;;22.76;74.31;97208.03;29395;212;63004;-56
2023/08/22 01:41:34;;;;;;;0.30;0.30;;;;;;;22.76;73.92;97205.25;29395;283;63009;-70
2023/08/22 01:42:08;;;;;;;0.30;0.30;;;;;;;22.75;73.93;97210.00;29395;275;63004;-68
2023/08/22 01:42:40;;;;;;;0.25;0.25;;;;;;;22.72;74.02;97206.00;29395;256;63009;-70
2023/08/22 01:43:11;;;;;;;0.30;0.30;;;;;;;22.72;74.19;97206.00;29395;257;63004;-68
2023/08/22 01:43:44;;;;;;;0.30;0.30;;;;;;;22.72;74.10;97206.00;29395;248;63008;-69
2023/08/22 01:44:15;;;;;;;0.30;0.30;;;;;;;22.71;73.78;97204.37;29394;199;64009;-69
2023/08/22 01:44:47;;;;;;;0.30;0.30;;;;;;;22.69;74.02;97198.41;29395;208;63009;-56
2023/08/22 01:45:18;;;;;;;0.30;0.30;;;;;;;22.68;73.95;97202.34;29395;272;63009;-70
2023/08/22 01:45:50;;;;;;;0.30;0.30;;;;;;;22.68;73.95;97205.13;29395;249;63009;-56
2023/08/22 01:46:21;;;;;;;0.30;0.30;;;;;;;22.68;74.07;97204.31;29395;213;63005;-56
2023/08/22 01:46:56;;;;;;;0.30;0.30;;;;;;;22.66;74.20;97201.91;29395;295;63009;-69
2023/08/22 01:47:27;;;;;;;0.30;0.30;;;;;;;22.66;74.09;97207.44;29395;210;63005;-69
2023/08/22 01:47:58;;;;;;;0.30;0.30;;;;;;;22.66;73.91;97203.87;29395;265;63009;-69
2023/08/22 01:48:30;;;;;;;0.30;0.30;;;;;;;22.64;74.10;97207.00;29395;210;63004;-68
2023/08/22 01:49:01;;;;;;;0.30;0.30;;;;;;;22.64;74.04;97198.72;29395;236;63009;-69
2023/08/22 01:49:37;;;;;;;0.30;0.30;;;;;;;22.64;74.08;97209.78;29394;255;64009;-69
2023/08/22 01:50:09;;;;;;;0.30;0.30;;;;;;;22.64;74.22;97209.78;29395;252;63009;-70
2023/08/22 01:50:40;;;;;;;0.30;0.30;;;;;;;22.64;74.21;97203.44;29395;301;63004;-70
2023/08/22 01:51:13;;;;;;;0.30;0.30;;;;;;;22.64;74.16;97209.78;29395;270;63008;-69
2023/08/22 01:51:45;;;;;;;0.30;0.30;;;;;;;22.64;74.09;97207.00;29395;281;63005;-70
2023/08/22 01:52:16;;;;;;;0.30;0.30;;;;;;;22.63;73.82;97202.63;29395;209;63009;-70
2023/08/22 01:52:47;;;;;;;0.30;0.30;;;;;;;22.63;74.17;97201.84;29395;212;63005;-69
2023/08/22 01:53:20;;;;;;;0.30;0.30;;;;;;;22.63;74.18;97201.84;29395;237;63009;-69
2023/08/22 01:53:51;;;;;;;0.30;0.30;;;;;;;22.63;74.16;97202.63;29395;199;63005;-70
2023/08/22 01:54:22;;;;;;;0.20;0.20;;;;;;;22.63;74.03;97199.88;29395;224;63009;-68
2023/08/22 01:54:54;;;;;;;0.30;0.30;;;;;;;22.61;73.71;97204.97;29394;222;64009;-69
2023/08/22 01:55:25;;;;;;;0.30;0.30;;;;;;;22.63;73.99;97196.31;29395;229;63005;-69
2023/08/22 01:56:00;;;;;;;0.30;0.30;;;;;;;22.63;73.86;97201.84;29395;213;63004;-69
2023/08/22 01:56:31;;;;;;;0.30;0.30;;;;;;;22.63;73.86;97205.41;29395;202;63009;-69
2023/08/22 01:57:05;;;;;;;0.30;0.30;;;;;;;22.63;73.83;97201.84;29395;276;63004;-69
2023/08/22 01:57:36;;;;;;;0.30;0.30;;;;;;;22.63;73.97;97196.31;29395;272;63009;-71
2023/08/22 01:58:11;;;;;;;0.30;0.30;;;;;;;22.63;73.85;97196.31;29395;242;63004;-69
2023/08/22 01:58:42;;;;;;;0.30;0.30;;;;;;;22.61;73.82;97196.66;29395;256;63008;-68
2023/08/22 01:59:17;;;;;;;0.30;0.30;;;;;;;22.61;73.75;97193.91;29395;197;63005;-70
2023/08/22 01:59:48;;;;;;;0.30;0.30;;;;;;;22.61;73.69;97193.09;29395;225;63009;-70
2023/08/22 02:00:20;;;;;;;0.30;0.30;;;;;;;22.60;73.46;97192.28;29394;229;64009;-69
2023/08/22 02:00:51;;;;;;;0.30;0.30;;;;;;;22.61;73.95;97193.91;29395;282;63009;-69
2023/08/22 02:01:23;;;;;;;0.30;0.30;;;;;;;22.61;73.86;97193.91;29395;234;63005;-69
2023/08/22 02:01:55;;;;;;;0.30;0.30;;;;;;;22.59;74.07;97185.16;29395;204;63015;-70
2023/08/22 02:02:26;;;;;;;0.30;0.30;;;;;;;22.60;74.00;97188.72;29395;227;63004;-69
2023/08/22 02:02:58;;;;;;;0.30;0.30;;;;;;;22.59;74.08;97190.69;29395;253;63009;-68
2023/08/22 02:03:29;;;;;;;0.30;0.30;;;;;;;22.59;74.01;97189.91;29395;242;63004;-69
2023/08/22 02:04:03;;;;;;;0.30;0.30;;;;;;;22.59;74.35;97195.44;29395;197;63009;-56
2023/08/22 02:04:38;;;;;;;0.30;0.30;;;;;;;22.58;74.19;97189.09;29395;197;63004;-69
2023/08/22 02:05:10;;;;;;;0.30;0.30;;;;;;;22.58;73.95;97188.28;29395;207;63008;-69
2023/08/22 02:05:41;;;;;;;0.30;0.30;;;;;;;22.58;73.66;97197.38;29394;294;64008;-70
2023/08/22 02:06:13;;;;;;;0.30;0.30;;;;;;;22.58;73.76;97191.06;29395;267;63008;-69
2023/08/22 02:06:46;;;;;;;0.30;0.30;;;;;;;22.57;74.22;97193.03;29395;199;63005;-70
2023/08/22 02:07:20;;;;;;;0.30;0.30;;;;;;;22.57;73.85;97193.03;29394;214;64013;-57
2023/08/22 02:07:52;;;;;;;0.30;0.30;;;;;;;22.56;74.23;97194.19;29395;204;63005;-68
2023/08/22 02:08:24;;;;;;;0.30;0.30;;;;;;;22.56;74.68;97196.16;29395;212;63009;-68
2023/08/22 02:08:57;;;;;;;0.30;0.30;;;;;;;22.51;74.72;97196.47;29395;206;63005;-69
2023/08/22 02:09:30;;;;;;;0.30;0.30;;;;;;;22.48;74.43;97188.87;29395;237;63009;-69
2023/08/22 02:10:05;;;;;;;0.30;0.30;;;;;;;22.48;74.86;97194.41;29395;267;63004;-69
2023/08/22 02:10:37;;;;;;;0.30;0.30;;;;;;;22.48;74.54;97197.19;29395;245;63009;-70
2023/08/22 02:11:10;;;;;;;0.30;0.30;;;;;;;22.48;74.35;97197.19;29395;210;63004;-69
2023/08/22 02:11:41;;;;;;;0.30;0.30;;;;;;;22.48;74.54;97195.22;29395;221;63009;-68
2023/08/22 02:12:16;;;;;;;0.20;0.20;;;;;;;22.47;74.34;97196.37;29395;241;63004;-71
2023/08/22 02:12:47;;;;;;;0.30;0.30;;;;;;;22.47;74.62;97199.16;29394;208;64013;-68
2023/08/22 02:13:18;;;;;;;0.30;0.30;;;;;;;22.47;74.68;97193.63;29395;240;63005;-56
2023/08/22 02:13:49;;;;;;;0.30;0.30;;;;;;;22.47;74.93;97190.06;29395;200;63009;-70
2023/08/22 02:14:22;;;;;;;0.30;0.30;;;;;;;22.47;74.50;97193.63;29395;237;63005;-70
2023/08/22 02:14:53;;;;;;;0.30;0.30;;;;;;;22.47;74.56;97190.84;29395;236;63009;-56
2023/08/22 02:15:31;;;;;;;0.30;0.30;;;;;;;22.46;74.82;97192.03;29395;259;63005;-56
2023/08/22 02:16:04;;;;;;;0.30;0.30;;;;;;;22.45;74.06;97190.41;29395;223;63009;-70
2023/08/22 02:16:35;;;;;;;0.30;0.30;;;;;;;22.46;74.35;97192.03;29395;229;63005;-69
2023/08/22 02:17:11;;;;;;;0.30;0.30;;;;;;;22.45;74.29;97184.88;29395;196;63009;-69
2023/08/22 02:17:45;;;;;;;0.30;0.30;;;;;;;22.44;74.94;97188.81;29395;262;63004;-69
2023/08/22 02:18:17;;;;;;;0.30;0.30;;;;;;;22.42;74.76;97188.37;29394;276;64013;-70
2023/08/22 02:18:48;;;;;;;0.30;0.30;;;;;;;22.42;74.76;97196.66;29395;250;63004;-69
2023/08/22 02:19:19;;;;;;;0.30;0.30;;;;;;;22.41;74.84;97186.78;29395;256;63009;-69
2023/08/22 02:19:50;;;;;;;0.30;0.30;;;;;;;22.41;74.74;97184.00;29395;213;63004;-69
2023/08/22 02:20:23;;;;;;;0.30;0.30;;;;;;;22.42;74.99;97184.81;29395;304;63027;-70
2023/08/22 02:20:56;;;;;;;0.30;0.30;;;;;;;22.41;74.73;97189.53;29395;248;63005;-69
2023/08/22 02:21:29;;;;;;;0.30;0.30;;;;;;;22.41;74.56;97184.00;29395;293;63009;-69
2023/08/22 02:22:04;;;;;;;0.30;0.30;;;;;;;22.40;74.21;97180.44;29395;223;63005;-69
2023/08/22 02:22:40;;;;;;;0.30;0.30;;;;;;;22.40;74.64;97183.22;29395;198;63009;-70
2023/08/22 02:23:11;;;;;;;0.20;0.20;;;;;;;22.40;74.50;97187.94;29395;208;63005;-69
2023/08/22 02:23:43;;;;;;;0.30;0.30;;;;;;;22.40;74.56;97187.94;29394;291;64013;-57
2023/08/22 02:24:17;;;;;;;0.30;0.30;;;;;;;22.39;74.64;97183.56;29395;252;63005;-68
2023/08/22 02:24:48;;;;;;;0.30;0.30;;;;;;;22.39;74.91;97186.34;29395;270;63015;-56
2023/08/22 02:25:22;;;;;;;0.30;0.30;;;;;;;22.39;74.51;97180.81;29395;212;63004;-69
2023/08/22 02:25:53;;;;;;;0.30;0.30;;;;;;;22.38;74.79;97182.75;29395;212;63009;-69
2023/08/22 02:26:26;;;;;;;0.30;0.30;;;;;;;22.37;74.63;97183.94;29394;247;64004;-69
2023/08/22 02:26:57;;;;;;;0.30;0.30;;;;;;;22.36;74.72;97181.53;29395;203;63009;-69
2023/08/22 02:27:30;;;;;;;0.30;0.30;;;;;;;22.36;74.47;97185.09;29395;199;63016;-68
2023/08/22 02:28:02;;;;;;;0.30;0.30;;;;;;;22.36;74.61;97189.81;29395;198;63008;-70
2023/08/22 02:28:34;;;;;;;0.30;0.30;;;;;;;22.35;74.68;97182.69;29395;197;63011;-68
2023/08/22 02:29:06;;;;;;;0.30;0.30;;;;;;;22.35;74.83;97185.44;29394;197;64014;-69
2023/08/22 02:29:40;;;;;;;0.30;0.30;;;;;;;22.34;74.85;97186.63;29395;197;63005;-69
2023/08/22 02:30:13;;;;;;;0.30;0.30;;;;;;;22.34;75.28;97183.84;29395;197;63026;-70
2023/08/22 02:30:45;;;;;;;0.30;0.30;;;;;;;22.32;74.85;97183.41;29395;222;63005;-68
2023/08/22 02:31:16;;;;;;;0.30;0.30;;;;;;;22.33;75.21;97182.25;29395;215;63009;-69
2023/08/22 02:31:47;;;;;;;0.40;0.40;;;;;;;22.33;75.34;97182.25;29395;214;63005;-70
2023/08/22 02:32:19;;;;;;;0.30;0.30;;;;;;;22.32;75.00;97183.41;29395;247;63009;-70
2023/08/22 02:32:52;;;;;;;0.30;0.30;;;;;;;22.29;75.13;97182.16;29395;212;63000;-69
2023/08/22 02:33:24;;;;;;;0.30;0.30;;;;;;;22.30;74.64;97189.28;29395;198;63009;-70
2023/08/22 02:33:55;;;;;;;0.30;0.30;;;;;;;22.29;74.95;97181.37;29395;223;63004;-70
2023/08/22 02:34:26;;;;;;;0.30;0.30;;;;;;;22.29;74.97;97186.91;29394;316;64013;-68
2023/08/22 02:34:58;;;;;;;0.30;0.30;;;;;;;22.28;75.19;97180.56;29395;219;63004;-56
2023/08/22 02:35:30;;;;;;;0.30;0.30;;;;;;;22.28;74.81;97188.84;29395;249;63008;-69
2023/08/22 02:36:01;;;;;;;0.30;0.30;;;;;;;22.27;75.21;97180.94;29395;202;63005;-70
2023/08/22 02:36:36;;;;;;;0.30;0.30;;;;;;;22.25;75.14;97186.00;29395;251;63009;-68
2023/08/22 02:37:07;;;;;;;0.30;0.30;;;;;;;22.25;75.30;97177.72;29395;207;63005;-69
2023/08/22 02:37:42;;;;;;;0.30;0.30;;;;;;;22.24;74.96;97190.75;29395;212;63009;-69
2023/08/22 02:38:13;;;;;;;0.30;0.30;;;;;;;22.23;75.34;97188.34;29395;240;63005;-56
2023/08/22 02:38:45;;;;;;;0.30;0.30;;;;;;;22.23;75.45;97185.56;29395;213;63020;-69
2023/08/22 02:39:17;;;;;;;0.30;0.30;;;;;;;22.22;75.40;97186.72;29395;282;63005;-70
2023/08/22 02:39:48;;;;;;;0.30;0.30;;;;;;;22.20;75.47;97183.53;29394;228;64013;-69